Terminal Aerodrome Forecast
Issued by NWS Albany, NY

Current Version | Previous Version | Text Only | Print | Product List | Glossary On
Versions: 1 2 3 4 5 6 7 8 9 10 11 12 13 14 15 16 17 18 19 20 21
000
FTUS41 KALY 040002 AAA
TAFGFL
TAF AMD
KGFL 040002Z 0400/0424 19008KT P6SM VCSH BKN080
      TEMPO 0401/0402 20008G18KT 6SM -SHRA BKN035
     FM040600 VRB03KT 5SM BR SCT015
     FM040800 00000KT 2SM BR SCT008
     FM041200 20005KT P6SM SCT030
     FM041700 24008G18KT P6SM VCSH BKN040=

USA.gov is the U.S. government's official web portal to all federal, state and local government web resources and services.